Airfield :







YOU CAN JOIN US ON...

 
LOGIN :

Register | Disclaimer

   EN    FR    IT 

 









Legend :    VFR   Marginal VFR   IFR   Intensive IFR   Very Intensive IFR
Visi :
Ceiling :
>= 8 km
>= 3000ft
5 to 8 km
1000 to 3000 ft
1500m to 5 km
500 to 1000 ft
800 to 1500m
200 to 500 ft
< 800m
< 200 ft
Symbols :   Thunderstorms  Fog  Heavy snow  Heavy precipitations  Wind > 20 kt






- Airport Elevation : 108 ft
- IATA code : YAY


CYAY - St Anthony

CURRENT METAR :
  • 012100Z AUTO 22016G29KT 9SM CLR 14/10 A2978 RMK SLP088

EXPIRED METARs :
  • 012000Z AUTO 23018G30KT 9SM CLR 15/09 A2976 RMK SLP081 DENSITY ALT 200FT
  • 011900Z AUTO 23024G36KT 9SM CLR 16/09 A2975 RMK SLP076 DENSITY ALT 300FT

TAF TAF CYAY
Valid from the 01 at 20:00 until the 02 at 08:00 UTC


011946Z 0120/0208 22028G38KT P6SM SKC
FM020100 22015G25KT P6SM SCT010
TEMPO 0201/0208 BKN010
PROB30 0201/0208 BKN008 RMK FCST BASED ON AUTO OBS. NXT FCST BY 020200Z
CZQX FIR / North America



MET'MAP, your aeronautical weather chart ! - Copyright ORBIFLY December 2007 - Disclaimer

ORBIFLY MET'MAP TEAM :

Programming & Development : Alexandra Zaïnal
Concept & original design : Baudouin d'Aumeries
Assistance for programming : Marc-Olivier Méhu
Technical & hardware support : Manuel Goepfert

Contact : metmap@orbifly.com




SOURCES & CREDITS :

   NOAA